Time;durP1;ratioP1;P1;durP2;ratioP2;P2;SDS_P1;SDS_P2;PMS_P1;PMS_P2;Temp;Humidity;BMP_temperature;BMP_pressure;BME280_temperature;BME280_humidity;BME280_pressure;Samples;Min_cycle;Max_cycle;Signal;HPM_P1;HPM_P2
2022/07/22 00:02:11;;;;;;;9.73;3.92;;;22.50;56.40;;;;;;5017579;28;20026;-69
2022/07/22 00:04:36;;;;;;;11.40;4.30;;;22.50;56.60;;;;;;5029282;28;20124;-69
2022/07/22 00:07:02;;;;;;;7.68;3.75;;;22.40;56.90;;;;;;5025414;28;20049;-69
2022/07/22 00:09:29;;;;;;;10.63;4.00;;;22.40;56.80;;;;;;5028501;28;20072;-69
2022/07/22 00:11:54;;;;;;;7.65;4.03;;;22.40;57.10;;;;;;5028381;28;20049;-69
2022/07/22 00:14:20;;;;;;;9.68;3.80;;;22.40;57.20;;;;;;5026935;28;20072;-69
2022/07/22 00:16:46;;;;;;;7.10;3.83;;;22.30;57.30;;;;;;5023701;28;20036;-69
2022/07/22 00:19:12;;;;;;;12.45;4.28;;;22.30;57.40;;;;;;5026278;28;20036;-69
2022/07/22 00:21:37;;;;;;;7.07;3.90;;;22.30;57.60;;;;;;5025400;28;20029;-69
2022/07/22 00:24:04;;;;;;;6.43;4.03;;;22.20;57.60;;;;;;5022437;28;20029;-69
2022/07/22 00:26:30;;;;;;;10.07;4.45;;;22.20;57.90;;;;;;5032724;28;20104;-69
2022/07/22 00:28:55;;;;;;;14.32;8.75;;;22.20;58.00;;;;;;5028538;28;20144;-69
2022/07/22 00:31:21;;;;;;;10.65;5.05;;;22.20;58.00;;;;;;5023895;28;20817;-69
2022/07/22 00:33:47;;;;;;;7.63;4.10;;;22.20;58.00;;;;;;5018639;28;20037;-69
2022/07/22 00:36:12;;;;;;;10.15;4.90;;;22.20;58.40;;;;;;5022875;28;20041;-69
2022/07/22 00:38:39;;;;;;;8.95;4.20;;;22.20;58.50;;;;;;5025506;28;20037;-69
2022/07/22 00:41:05;;;;;;;6.35;4.32;;;22.20;58.40;;;;;;5022480;28;20034;-69
2022/07/22 00:43:49;;;;;;;9.80;4.40;;;22.10;58.40;;;;;;5017649;28;20034;-70
2022/07/22 00:46:15;;;;;;;9.38;4.20;;;22.10;58.70;;;;;;5018192;28;20033;-69
2022/07/22 00:48:41;;;;;;;9.82;4.78;;;22.20;58.60;;;;;;5024429;28;20454;-69
2022/07/22 00:51:07;;;;;;;9.35;4.40;;;22.10;58.80;;;;;;5028039;28;20183;-69
2022/07/22 00:53:32;;;;;;;8.27;4.35;;;22.10;59.10;;;;;;5025717;28;20041;-69
2022/07/22 00:55:59;;;;;;;9.00;4.10;;;22.10;59.30;;;;;;5030734;28;20090;-69
2022/07/22 00:58:24;;;;;;;7.30;4.50;;;22.10;59.40;;;;;;5028800;28;20386;-69
2022/07/22 01:00:50;;;;;;;6.88;4.07;;;22.10;59.30;;;;;;5027491;28;20025;-69
2022/07/22 01:03:16;;;;;;;8.38;4.60;;;22.10;59.20;;;;;;5024295;28;20037;-69
2022/07/22 01:05:42;;;;;;;6.85;4.32;;;22.10;59.30;;;;;;5027145;28;20029;-70
2022/07/22 01:08:08;;;;;;;7.20;4.35;;;22.10;59.40;;;;;;5020870;28;20050;-69
2022/07/22 01:10:34;;;;;;;10.68;5.15;;;22.10;59.50;;;;;;5026103;28;20032;-69
2022/07/22 01:13:00;;;;;;;8.82;4.53;;;22.10;59.50;;;;;;5023685;28;21486;-69
2022/07/22 01:15:26;;;;;;;9.52;4.60;;;22.10;59.80;;;;;;5020117;28;20110;-70
2022/07/22 01:17:51;;;;;;;10.52;4.93;;;22.10;60.00;;;;;;5022719;28;20072;-69
2022/07/22 01:20:17;;;;;;;7.45;4.70;;;22.10;60.10;;;;;;5016020;28;20029;-69
2022/07/22 01:22:44;;;;;;;7.85;4.80;;;22.00;60.40;;;;;;5018102;28;20040;-69
2022/07/22 01:25:10;;;;;;;8.38;4.50;;;22.00;60.50;;;;;;5027784;28;20041;-69
2022/07/22 01:27:36;;;;;;;11.73;4.90;;;22.00;60.60;;;;;;5025336;28;20068;-69
2022/07/22 01:30:05;;;;;;;9.50;4.80;;;22.00;60.70;;;;;;5027543;28;20057;-69
2022/07/22 01:32:30;;;;;;;10.32;4.97;;;22.00;60.90;;;;;;5028207;28;20029;-69
2022/07/22 01:34:56;;;;;;;9.07;4.70;;;21.90;61.10;;;;;;5016624;28;20043;-70
2022/07/22 01:37:22;;;;;;;8.45;4.72;;;21.90;61.40;;;;;;5028065;28;20511;-69
2022/07/22 01:39:48;;;;;;;9.27;4.80;;;21.90;61.60;;;;;;5029303;28;20037;-69
2022/07/22 01:42:14;;;;;;;11.35;5.20;;;21.90;61.60;;;;;;5023465;28;20105;-69
2022/07/22 01:44:40;;;;;;;7.35;4.95;;;21.90;61.70;;;;;;5023796;28;20160;-69
2022/07/22 01:47:07;;;;;;;8.68;5.13;;;21.90;61.80;;;;;;5017673;28;20029;-69
2022/07/22 01:49:34;;;;;;;10.25;5.47;;;21.80;61.90;;;;;;5027986;28;20127;-69
2022/07/22 01:52:00;;;;;;;8.52;5.07;;;21.80;62.20;;;;;;5020640;28;20113;-69
2022/07/22 01:54:26;;;;;;;10.48;5.32;;;21.80;62.30;;;;;;5021603;28;20125;-69
2022/07/22 01:56:52;;;;;;;12.45;5.05;;;21.80;62.60;;;;;;5022218;28;20799;-69
2022/07/22 01:59:17;;;;;;;13.00;5.30;;;21.80;62.70;;;;;;5026375;28;20033;-69
2022/07/22 02:01:43;;;;;;;8.20;5.07;;;21.80;62.90;;;;;;5015851;28;20049;-69
2022/07/22 02:04:09;;;;;;;9.57;5.40;;;21.80;63.30;;;;;;5023357;28;20033;-69
2022/07/22 02:06:34;;;;;;;8.02;5.10;;;21.80;63.50;;;;;;5018732;28;20465;-69
2022/07/22 02:09:00;;;;;;;8.95;4.97;;;21.80;63.70;;;;;;5027062;28;20030;-69
2022/07/22 02:11:26;;;;;;;8.23;4.95;;;21.80;63.90;;;;;;5020204;28;20028;-69
2022/07/22 02:13:53;;;;;;;12.48;5.75;;;21.80;64.00;;;;;;5018205;28;20083;-69
2022/07/22 02:16:18;;;;;;;7.88;4.95;;;21.80;64.10;;;;;;5022511;28;20084;-70
2022/07/22 02:18:44;;;;;;;11.57;5.55;;;21.70;64.30;;;;;;5023372;28;20614;-69
2022/07/22 02:21:10;;;;;;;10.18;5.30;;;21.70;64.40;;;;;;5019946;28;20017;-69
2022/07/22 02:23:35;;;;;;;8.02;5.38;;;21.80;64.60;;;;;;5017764;28;20492;-69
2022/07/22 02:26:02;;;;;;;9.93;5.40;;;21.80;64.50;;;;;;5024804;28;20431;-69
2022/07/22 02:28:27;;;;;;;10.48;5.20;;;21.80;64.50;;;;;;5014852;28;20057;-69
2022/07/22 02:30:53;;;;;;;10.27;5.32;;;21.80;64.60;;;;;;5024430;28;20049;-69
2022/07/22 02:33:19;;;;;;;7.97;5.20;;;21.80;64.80;;;;;;5021297;28;20115;-69
2022/07/22 02:35:45;;;;;;;10.55;5.28;;;21.80;64.90;;;;;;5025341;28;20036;-69
2022/07/22 02:38:11;;;;;;;10.05;5.28;;;21.70;64.90;;;;;;5024932;28;20033;-69
2022/07/22 02:40:36;;;;;;;10.60;5.57;;;21.70;65.00;;;;;;5027484;28;20501;-69
2022/07/22 02:43:05;;;;;;;10.48;5.75;;;21.70;65.10;;;;;;5025719;28;20497;-69
2022/07/22 02:45:32;;;;;;;10.25;4.97;;;21.70;65.10;;;;;;5023631;28;20029;-69
2022/07/22 02:47:58;;;;;;;11.70;5.65;;;21.70;65.10;;;;;;5019184;28;20484;-69
2022/07/22 02:50:24;;;;;;;8.50;5.30;;;21.70;65.20;;;;;;5017547;28;20028;-69
2022/07/22 02:52:50;;;;;;;10.70;5.55;;;21.70;65.20;;;;;;5018005;28;20108;-69
2022/07/22 02:55:17;;;;;;;10.68;5.30;;;21.70;65.20;;;;;;5026190;28;20785;-69
2022/07/22 02:57:42;;;;;;;9.20;4.78;;;21.70;65.20;;;;;;5023000;28;20083;-69
2022/07/22 03:00:09;;;;;;;9.82;5.28;;;21.70;65.40;;;;;;5023071;28;20029;-69
2022/07/22 03:02:35;;;;;;;8.02;5.22;;;21.70;65.30;;;;;;5022678;28;20509;-69
2022/07/22 03:05:02;;;;;;;10.98;5.40;;;21.70;65.40;;;;;;5026443;28;20470;-69
2022/07/22 03:07:28;;;;;;;9.65;5.50;;;21.60;65.30;;;;;;5027304;28;20440;-69
2022/07/22 03:09:53;;;;;;;9.35;5.30;;;21.60;65.30;;;;;;5017551;28;20041;-69
2022/07/22 03:12:19;;;;;;;14.32;5.40;;;21.60;65.30;;;;;;5016371;28;20053;-69
2022/07/22 03:14:45;;;;;;;11.10;5.60;;;21.60;65.30;;;;;;5026398;28;20112;-69
2022/07/22 03:17:10;;;;;;;8.02;4.78;;;21.60;65.40;;;;;;5014762;28;20068;-69
2022/07/22 03:19:36;;;;;;;8.82;5.45;;;21.60;65.70;;;;;;5018985;28;20026;-69
2022/07/22 03:22:02;;;;;;;8.75;5.50;;;21.60;65.80;;;;;;5014584;28;20487;-69
2022/07/22 03:24:27;;;;;;;8.73;5.43;;;21.60;65.80;;;;;;5031491;28;20102;-69
2022/07/22 03:26:53;;;;;;;11.38;5.65;;;21.60;65.90;;;;;;5029390;28;20034;-69
2022/07/22 03:29:19;;;;;;;10.27;5.97;;;21.50;66.10;;;;;;5032044;28;20036;-69
2022/07/22 03:31:44;;;;;;;10.60;6.10;;;21.50;66.30;;;;;;5035240;28;20108;-69
2022/07/22 03:34:10;;;;;;;12.25;6.20;;;21.50;66.50;;;;;;5038027;28;20040;-69
2022/07/22 03:36:36;;;;;;;10.90;5.82;;;21.50;66.70;;;;;;5033152;28;20400;-69
2022/07/22 03:39:02;;;;;;;13.70;6.60;;;21.50;66.80;;;;;;5035629;28;20041;-69
2022/07/22 03:41:27;;;;;;;9.70;5.75;;;21.40;67.10;;;;;;5038329;28;20411;-69
2022/07/22 03:43:53;;;;;;;11.57;5.88;;;21.50;67.10;;;;;;5038570;28;20041;-69
2022/07/22 03:46:19;;;;;;;10.32;5.80;;;21.40;67.10;;;;;;5038146;28;20017;-70
2022/07/22 03:48:44;;;;;;;13.02;6.38;;;21.40;67.10;;;;;;5036439;28;20040;-69
2022/07/22 03:51:10;;;;;;;11.25;6.15;;;21.40;67.20;;;;;;5034896;28;20087;-69
2022/07/22 03:53:36;;;;;;;10.90;6.10;;;21.40;67.50;;;;;;5033460;28;20147;-69
2022/07/22 03:56:02;;;;;;;12.20;6.15;;;21.40;67.50;;;;;;5025527;28;20041;-69
2022/07/22 03:58:28;;;;;;;10.98;5.70;;;21.40;67.60;;;;;;5020614;28;20104;-69
2022/07/22 04:00:54;;;;;;;11.50;6.45;;;21.40;67.70;;;;;;5022653;28;20424;-69
2022/07/22 04:03:20;;;;;;;11.60;6.03;;;21.40;67.80;;;;;;5021018;28;20041;-69
2022/07/22 04:05:46;;;;;;;12.15;6.38;;;21.40;67.70;;;;;;5019610;28;20025;-70
2022/07/22 04:08:12;;;;;;;11.38;6.80;;;21.40;67.70;;;;;;5014692;28;20057;-68
2022/07/22 04:10:38;;;;;;;13.68;6.38;;;21.40;67.80;;;;;;5023229;28;20060;-69
2022/07/22 04:13:04;;;;;;;11.32;6.78;;;21.40;67.90;;;;;;5013501;28;20033;-69
2022/07/22 04:15:30;;;;;;;12.18;6.38;;;21.40;68.00;;;;;;5020244;28;20067;-70
2022/07/22 04:17:56;;;;;;;10.23;6.38;;;21.40;68.10;;;;;;5021216;28;20045;-69
2022/07/22 04:20:22;;;;;;;13.20;6.40;;;21.40;68.20;;;;;;5020965;28;20622;-69
2022/07/22 04:22:47;;;;;;;11.55;6.65;;;21.40;68.40;;;;;;5022174;28;20056;-70
2022/07/22 04:25:14;;;;;;;9.10;6.50;;;21.30;68.50;;;;;;5021716;28;20490;-69
2022/07/22 04:27:39;;;;;;;11.40;6.47;;;21.30;68.40;;;;;;5016753;28;20030;-67
2022/07/22 04:30:06;;;;;;;13.65;6.95;;;21.30;68.50;;;;;;5016336;28;20051;-69
2022/07/22 04:32:32;;;;;;;9.65;6.50;;;21.40;68.50;;;;;;5013974;28;20084;-70
2022/07/22 04:34:58;;;;;;;10.00;6.72;;;21.40;68.60;;;;;;5018391;28;20444;-68
2022/07/22 04:37:23;;;;;;;11.15;6.43;;;21.40;68.60;;;;;;5024905;28;20073;-70
2022/07/22 04:39:49;;;;;;;10.80;6.38;;;21.30;68.60;;;;;;5020630;28;20109;-69
2022/07/22 04:42:15;;;;;;;9.55;6.30;;;21.30;68.50;;;;;;5020253;28;20033;-69
2022/07/22 04:44:40;;;;;;;12.38;6.95;;;21.40;68.60;;;;;;5026634;28;20497;-69
2022/07/22 04:47:06;;;;;;;11.45;6.72;;;21.40;68.60;;;;;;5028525;28;20152;-70
2022/07/22 04:49:32;;;;;;;13.02;6.70;;;21.40;68.70;;;;;;5017592;28;20041;-70
2022/07/22 04:51:58;;;;;;;11.82;7.35;;;21.40;68.60;;;;;;5023930;28;20120;-70
2022/07/22 04:54:23;;;;;;;11.68;6.75;;;21.40;68.50;;;;;;5026174;28;20037;-69
2022/07/22 04:56:50;;;;;;;14.50;6.97;;;21.40;68.50;;;;;;5025181;28;20037;-69
2022/07/22 04:59:16;;;;;;;13.93;7.35;;;21.40;68.40;;;;;;5024034;28;20128;-68
2022/07/22 05:01:41;;;;;;;12.45;6.65;;;21.50;68.20;;;;;;5029347;28;20017;-68
2022/07/22 05:04:07;;;;;;;12.80;6.88;;;21.50;68.20;;;;;;5029204;28;20792;-71
2022/07/22 05:06:33;;;;;;;12.25;7.32;;;21.50;68.20;;;;;;5026959;28;20037;-72
2022/07/22 05:08:59;;;;;;;13.95;7.15;;;21.50;68.10;;;;;;5019327;28;20076;-71
2022/07/22 05:11:25;;;;;;;11.52;7.50;;;21.50;68.10;;;;;;5028718;28;20038;-69
2022/07/22 05:13:51;;;;;;;15.10;7.28;;;21.40;68.10;;;;;;5025306;28;20025;-70
2022/07/22 05:16:16;;;;;;;14.25;7.38;;;21.40;68.20;;;;;;5025595;28;20045;-70
2022/07/22 05:18:42;;;;;;;14.73;7.35;;;21.40;68.20;;;;;;5025646;28;20126;-69
2022/07/22 05:21:08;;;;;;;12.18;7.32;;;21.40;68.30;;;;;;5027111;28;20018;-69
2022/07/22 05:23:33;;;;;;;14.07;7.30;;;21.30;68.20;;;;;;5017870;28;20067;-69
2022/07/22 05:25:59;;;;;;;13.38;7.20;;;21.30;68.30;;;;;;5030801;28;20389;-68
2022/07/22 05:28:25;;;;;;;13.73;7.38;;;21.30;68.30;;;;;;5037119;28;20044;-69
2022/07/22 05:30:52;;;;;;;13.65;7.40;;;21.30;68.30;;;;;;5029247;28;20108;-70
2022/07/22 05:33:18;;;;;;;14.23;7.80;;;21.30;68.40;;;;;;5032491;28;20033;-70
2022/07/22 05:35:44;;;;;;;13.52;7.72;;;21.30;68.60;;;;;;5027026;28;20930;-70
2022/07/22 05:38:09;;;;;;;12.27;7.82;;;21.30;68.70;;;;;;5021737;28;20528;-70
2022/07/22 05:40:35;;;;;;;15.95;7.68;;;21.30;68.80;;;;;;5026559;28;20029;-69
2022/07/22 05:43:01;;;;;;;14.10;7.50;;;21.30;68.80;;;;;;5029496;28;20044;-69
2022/07/22 05:45:26;;;;;;;14.43;7.38;;;21.30;68.70;;;;;;5028730;28;20021;-69
2022/07/22 05:47:52;;;;;;;15.35;7.50;;;21.40;68.80;;;;;;5026889;28;20496;-69
2022/07/22 05:50:18;;;;;;;12.90;7.68;;;21.50;68.90;;;;;;5028908;28;20018;-70
2022/07/22 05:52:44;;;;;;;17.20;8.07;;;21.50;68.80;;;;;;5027606;28;20033;-69
2022/07/22 05:55:10;;;;;;;13.27;7.88;;;21.50;68.80;;;;;;5026671;28;20047;-70
2022/07/22 05:57:36;;;;;;;14.25;7.95;;;21.60;68.60;;;;;;5025987;28;20041;-70
2022/07/22 06:00:03;;;;;;;16.50;8.55;;;21.60;68.40;;;;;;5023465;28;20132;-71
2022/07/22 06:02:30;;;;;;;22.55;8.15;;;21.70;68.40;;;;;;5017013;28;20033;-71
2022/07/22 06:04:56;;;;;;;15.90;8.00;;;21.70;68.20;;;;;;5027399;28;20057;-73
2022/07/22 06:07:22;;;;;;;15.65;8.50;;;21.70;68.10;;;;;;5024772;28;20148;-70
2022/07/22 06:09:48;;;;;;;14.45;8.23;;;21.80;68.10;;;;;;5021483;28;20520;-70
2022/07/22 06:12:13;;;;;;;14.32;8.18;;;21.80;67.90;;;;;;5026404;28;20471;-70
2022/07/22 06:14:39;;;;;;;15.45;7.95;;;21.80;67.60;;;;;;5027845;28;20055;-71
2022/07/22 06:17:05;;;;;;;11.77;7.95;;;21.90;67.40;;;;;;5026293;28;20080;-70
2022/07/22 06:19:31;;;;;;;15.50;8.82;;;21.90;67.30;;;;;;5024488;28;20505;-70
2022/07/22 06:21:57;;;;;;;14.13;7.70;;;22.00;67.00;;;;;;5023542;28;20043;-70
2022/07/22 06:24:23;;;;;;;14.30;8.23;;;22.00;66.80;;;;;;5027325;28;20424;-70
2022/07/22 06:26:49;;;;;;;14.32;8.07;;;22.10;66.80;;;;;;5025156;28;20021;-70
2022/07/22 06:29:17;;;;;;;15.45;7.63;;;22.20;66.90;;;;;;5026226;28;20567;-71
2022/07/22 06:31:44;;;;;;;14.15;7.75;;;22.20;66.60;;;;;;5025776;28;20021;-70
2022/07/22 06:34:10;;;;;;;18.20;8.45;;;22.20;66.60;;;;;;5028461;28;20029;-71
2022/07/22 06:36:36;;;;;;;14.98;8.63;;;22.20;66.80;;;;;;5027438;28;20040;-70
2022/07/22 06:39:02;;;;;;;14.55;9.00;;;22.20;66.80;;;;;;5026967;28;20044;-70
2022/07/22 06:41:28;;;;;;;15.40;8.98;;;22.20;66.70;;;;;;5016468;28;20113;-71
2022/07/22 06:43:53;;;;;;;16.00;8.38;;;22.20;66.60;;;;;;5011124;28;20207;-70
2022/07/22 06:46:19;;;;;;;14.60;8.57;;;22.20;66.70;;;;;;5028168;28;20037;-71
2022/07/22 06:48:45;;;;;;;14.38;8.13;;;22.20;66.70;;;;;;5023333;28;20398;-70
2022/07/22 06:51:11;;;;;;;14.57;7.28;;;22.20;66.60;;;;;;5026496;28;20566;-68
2022/07/22 06:53:37;;;;;;;11.98;7.25;;;22.20;66.30;;;;;;5026021;28;20532;-68
2022/07/22 06:56:03;;;;;;;14.00;6.85;;;22.20;66.30;;;;;;5024605;28;20069;-68
2022/07/22 06:58:29;;;;;;;15.60;7.32;;;22.20;66.20;;;;;;5026254;28;20064;-68
2022/07/22 07:00:55;;;;;;;12.05;6.85;;;22.20;66.00;;;;;;5027227;28;20140;-68
2022/07/22 07:03:21;;;;;;;16.05;7.57;;;22.20;66.10;;;;;;5022422;28;20116;-68
2022/07/22 07:05:47;;;;;;;15.60;6.85;;;22.20;66.00;;;;;;5022833;28;20053;-69
2022/07/22 07:08:13;;;;;;;11.65;7.28;;;22.30;66.20;;;;;;5024340;28;20465;-68
2022/07/22 07:10:38;;;;;;;13.55;7.78;;;22.30;66.00;;;;;;5027143;28;20025;-70
2022/07/22 07:13:04;;;;;;;12.55;7.97;;;22.30;65.80;;;;;;5018079;28;20022;-69
2022/07/22 07:15:30;;;;;;;12.38;8.00;;;22.40;65.60;;;;;;5029539;28;20550;-69
2022/07/22 07:17:56;;;;;;;14.50;8.30;;;22.50;65.20;;;;;;5029722;28;20132;-68
2022/07/22 07:20:23;;;;;;;11.85;7.65;;;22.70;64.70;;;;;;5026060;28;20054;-69
2022/07/22 07:22:49;;;;;;;13.43;7.68;;;23.20;63.10;;;;;;5026727;28;20033;-69
2022/07/22 07:25:15;;;;;;;13.95;7.60;;;23.70;61.30;;;;;;5018238;28;20072;-68
2022/07/22 07:27:41;;;;;;;12.95;7.50;;;23.90;60.40;;;;;;5025175;28;20041;-70
2022/07/22 07:30:08;;;;;;;18.20;8.60;;;24.60;57.80;;;;;;5026588;28;20032;-70
2022/07/22 07:32:35;;;;;;;16.58;8.30;;;24.30;58.70;;;;;;5026915;28;20037;-70
2022/07/22 07:35:02;;;;;;;15.50;7.68;;;24.10;59.60;;;;;;5027433;28;20580;-70
2022/07/22 07:37:28;;;;;;;11.60;7.28;;;25.30;55.50;;;;;;5030078;28;20033;-71
2022/07/22 07:39:54;;;;;;;13.15;7.80;;;26.40;51.90;;;;;;5025400;28;20614;-70
2022/07/22 07:42:19;;;;;;;11.18;7.50;;;26.80;50.40;;;;;;5026530;28;20104;-70
2022/07/22 07:44:48;;;;;;;12.00;7.47;;;27.60;48.10;;;;;;5026174;28;20033;-70
2022/07/22 07:47:18;;;;;;;14.15;8.32;;;28.00;46.80;;;;;;5025966;28;20029;-70
2022/07/22 07:49:48;;;;;;;15.15;8.20;;;28.20;46.10;;;;;;5026334;28;20060;-69
2022/07/22 07:52:17;;;;;;;11.00;7.53;;;28.30;46.10;;;;;;5028006;28;20025;-70
2022/07/22 07:54:50;;;;;;;11.05;7.70;;;28.20;46.40;;;;;;5025443;28;20049;-70
2022/07/22 07:57:17;;;;;;;14.48;7.85;;;28.30;46.60;;;;;;5026014;28;20107;-70
2022/07/22 07:59:43;;;;;;;13.07;8.43;;;28.30;46.50;;;;;;5025951;28;20109;-69
2022/07/22 08:02:09;;;;;;;12.68;7.95;;;28.20;46.30;;;;;;5023943;28;20100;-72
2022/07/22 08:04:36;;;;;;;12.13;7.80;;;27.80;47.20;;;;;;5019296;28;20497;-71
2022/07/22 08:07:03;;;;;;;10.27;6.82;;;27.50;47.70;;;;;;5027329;28;20037;-70
2022/07/22 08:09:29;;;;;;;13.52;7.25;;;27.10;48.60;;;;;;5027427;28;20022;-71
2022/07/22 08:11:54;;;;;;;15.20;7.18;;;26.70;49.50;;;;;;5026994;28;20037;-71
2022/07/22 08:14:20;;;;;;;11.27;7.38;;;26.50;50.20;;;;;;5028847;28;20511;-71
2022/07/22 08:16:46;;;;;;;13.82;7.45;;;26.20;50.70;;;;;;5029083;28;20042;-71
2022/07/22 08:19:12;;;;;;;14.00;7.50;;;26.00;51.50;;;;;;5028785;28;20033;-70
2022/07/22 08:21:38;;;;;;;12.25;7.70;;;25.80;52.20;;;;;;5028257;28;20579;-69
2022/07/22 08:24:03;;;;;;;15.35;7.28;;;25.60;52.60;;;;;;5030058;28;20400;-70
2022/07/22 08:26:29;;;;;;;14.43;7.28;;;25.60;52.90;;;;;;5028613;28;20017;-69
2022/07/22 08:28:55;;;;;;;13.40;7.88;;;25.50;53.00;;;;;;5028467;28;20030;-69
2022/07/22 08:31:21;;;;;;;10.98;7.65;;;25.50;53.20;;;;;;5030049;28;20497;-69
2022/07/22 08:33:46;;;;;;;17.85;7.93;;;25.50;53.50;;;;;;5028566;28;20025;-69
2022/07/22 08:36:12;;;;;;;11.35;7.22;;;25.50;54.00;;;;;;5027592;28;20033;-69
2022/07/22 08:38:38;;;;;;;13.75;7.70;;;25.30;54.50;;;;;;5028545;28;20037;-69
2022/07/22 08:41:04;;;;;;;13.30;8.30;;;25.20;54.80;;;;;;5021854;28;20224;-69
2022/07/22 08:43:34;;;;;;;13.35;7.55;;;25.10;55.20;;;;;;5029306;28;21925;-70
2022/07/22 08:46:01;;;;;;;14.70;8.13;;;25.00;55.60;;;;;;5028832;28;20036;-69
2022/07/22 08:48:27;;;;;;;11.75;8.00;;;24.80;55.80;;;;;;5029468;28;20500;-69
2022/07/22 08:50:52;;;;;;;13.95;7.80;;;24.80;56.20;;;;;;5028445;28;20022;-69
2022/07/22 08:53:18;;;;;;;14.18;8.45;;;24.70;56.30;;;;;;5029494;28;20029;-69
2022/07/22 08:55:45;;;;;;;13.32;7.63;;;24.70;56.40;;;;;;5028285;28;20500;-69
2022/07/22 08:58:11;;;;;;;16.40;7.60;;;24.60;56.20;;;;;;5029655;28;20041;-69
2022/07/22 09:00:38;;;;;;;15.80;7.97;;;24.70;56.40;;;;;;5028417;28;20100;-69
2022/07/22 09:03:21;;;;;;;15.05;8.10;;;24.70;56.40;;;;;;5028577;28;20021;-69
2022/07/22 09:05:51;;;;;;;12.85;7.75;;;24.80;56.40;;;;;;5027940;28;20029;-70
2022/07/22 09:08:17;;;;;;;15.70;7.32;;;24.80;56.50;;;;;;5029156;28;20057;-70
2022/07/22 09:10:43;;;;;;;13.55;7.60;;;24.80;56.60;;;;;;5027456;28;20087;-70
2022/07/22 09:13:10;;;;;;;13.75;7.68;;;24.80;56.50;;;;;;5030456;28;20243;-71
2022/07/22 09:15:54;;;;;;;18.15;8.30;;;24.80;56.80;;;;;;5028094;28;20022;-69
2022/07/22 09:18:20;;;;;;;13.07;8.23;;;24.70;57.30;;;;;;5023625;28;20087;-71
2022/07/22 09:20:46;;;;;;;13.25;8.00;;;24.70;58.60;;;;;;5026066;28;20026;-71
2022/07/22 09:23:18;;;;;;;16.98;7.50;;;24.60;59.30;;;;;;5028942;28;20025;-71
2022/07/22 09:25:44;;;;;;;16.52;8.23;;;24.60;59.80;;;;;;5023984;28;20021;-71
2022/07/22 09:28:13;;;;;;;14.05;7.97;;;24.40;60.60;;;;;;5029034;28;20052;-71
2022/07/22 09:30:55;;;;;;;14.85;7.85;;;24.30;61.30;;;;;;5028332;28;20032;-71
2022/07/22 09:33:21;;;;;;;14.77;7.55;;;24.20;61.60;;;;;;5020225;28;20037;-70
2022/07/22 09:35:48;;;;;;;12.95;7.78;;;24.10;61.90;;;;;;5015504;28;20033;-70
2022/07/22 09:38:17;;;;;;;14.23;8.23;;;24.10;62.70;;;;;;5027668;28;20064;-70
2022/07/22 09:40:45;;;;;;;22.98;9.73;;;24.00;63.60;;;;;;5028173;28;20041;-70
2022/07/22 09:43:14;;;;;;;18.77;8.48;;;23.90;65.10;;;;;;5029694;28;20121;-71
2022/07/22 09:45:51;;;;;;;18.55;9.00;;;23.80;64.70;;;;;;5022470;28;20472;-69
2022/07/22 09:48:19;;;;;;;15.63;9.48;;;23.80;64.90;;;;;;5027024;28;20041;-69
2022/07/22 09:50:46;;;;;;;16.17;9.05;;;23.70;65.10;;;;;;5027577;28;20027;-71
2022/07/22 09:53:12;;;;;;;18.50;8.73;;;23.70;66.10;;;;;;5026255;28;20025;-70
2022/07/22 09:55:39;;;;;;;16.65;9.13;;;23.60;66.70;;;;;;5028457;28;20776;-71
2022/07/22 09:58:07;;;;;;;13.95;9.20;;;23.60;67.20;;;;;;5025214;28;20025;-70
2022/07/22 10:00:33;;;;;;;14.20;9.48;;;23.60;67.20;;;;;;5026254;28;20022;-70
2022/07/22 10:03:02;;;;;;;14.70;9.40;;;23.70;67.30;;;;;;5026746;28;20029;-69
2022/07/22 10:05:31;;;;;;;17.38;9.50;;;23.70;68.00;;;;;;5025449;28;20061;-70
2022/07/22 10:07:59;;;;;;;13.88;8.93;;;23.70;68.40;;;;;;5016819;28;20029;-69
2022/07/22 10:10:27;;;;;;;14.57;9.63;;;23.80;68.50;;;;;;5021965;28;20044;-69
2022/07/22 10:12:56;;;;;;;16.95;9.85;;;23.90;68.50;;;;;;5027992;28;20041;-70
2022/07/22 10:15:24;;;;;;;14.85;8.93;;;23.90;68.50;;;;;;5027753;28;20075;-71
2022/07/22 10:17:55;;;;;;;16.52;9.90;;;24.00;68.90;;;;;;5026226;28;20582;-71
2022/07/22 10:20:27;;;;;;;19.50;9.98;;;23.90;69.10;;;;;;5027260;28;20021;-70
2022/07/22 10:23:01;;;;;;;16.60;9.98;;;23.90;69.60;;;;;;5027477;28;20068;-70
2022/07/22 10:25:32;;;;;;;17.70;10.30;;;23.80;70.90;;;;;;5023947;28;20104;-70
2022/07/22 10:28:04;;;;;;;15.30;9.65;;;23.80;70.00;;;;;;5026347;28;20265;-71
2022/07/22 10:30:40;;;;;;;17.15;10.75;;;23.70;69.90;;;;;;5027487;28;20029;-70
2022/07/22 10:33:07;;;;;;;16.33;10.45;;;23.70;69.70;;;;;;5020788;28;20044;-70
2022/07/22 10:35:35;;;;;;;17.70;10.80;;;23.60;69.90;;;;;;5016369;28;20021;-70
2022/07/22 10:38:06;;;;;;;20.88;10.40;;;23.60;70.40;;;;;;5027091;28;20037;-70
2022/07/22 10:40:50;;;;;;;17.92;10.85;;;23.60;70.50;;;;;;5027332;28;20056;-70
2022/07/22 10:43:24;;;;;;;18.35;10.80;;;23.50;70.60;;;;;;5027774;28;20087;-70
2022/07/22 10:45:53;;;;;;;17.48;10.35;;;23.50;70.90;;;;;;5025970;28;20440;-70
2022/07/22 10:48:43;;;;;;;22.02;11.70;;;23.50;70.80;;;;;;5026147;28;20330;-69
2022/07/22 10:51:16;;;;;;;18.83;11.40;;;23.50;70.70;;;;;;5026239;28;20395;-68
2022/07/22 10:53:52;;;;;;;18.33;12.27;;;23.60;70.90;;;;;;5026827;28;20087;-69
2022/07/22 10:56:21;;;;;;;17.55;11.68;;;23.50;71.30;;;;;;5025088;28;20053;-69
2022/07/22 10:58:51;;;;;;;19.98;12.23;;;23.60;71.50;;;;;;5026807;28;20037;-69
2022/07/22 11:01:21;;;;;;;20.00;12.73;;;23.60;71.60;;;;;;5026164;28;20045;-69
2022/07/22 11:03:48;;;;;;;24.13;12.25;;;23.60;71.90;;;;;;5026931;28;20033;-69
2022/07/22 11:06:27;;;;;;;23.17;13.27;;;23.60;72.30;;;;;;5026998;28;20029;-68
2022/07/22 11:08:56;;;;;;;20.42;12.68;;;23.60;72.60;;;;;;5025216;28;20021;-69
2022/07/22 11:11:33;;;;;;;21.98;13.02;;;23.60;72.80;;;;;;5026850;28;20519;-69
2022/07/22 11:14:00;;;;;;;19.00;13.30;;;23.60;73.20;;;;;;5027381;28;20033;-68
2022/07/22 11:16:27;;;;;;;20.15;12.90;;;23.60;73.30;;;;;;5028310;28;20025;-68
2022/07/22 11:19:02;;;;;;;21.45;13.50;;;23.60;73.40;;;;;;5024865;28;20057;-68
2022/07/22 11:21:31;;;;;;;19.30;13.20;;;23.60;73.40;;;;;;5022311;28;20040;-69
2022/07/22 11:24:01;;;;;;;17.70;13.27;;;23.60;73.50;;;;;;5023461;28;20041;-69
2022/07/22 11:26:46;;;;;;;20.10;13.00;;;23.60;73.70;;;;;;5023119;28;20059;-69
2022/07/22 11:29:40;;;;;;;23.15;13.90;;;23.60;73.70;;;;;;5022997;28;20021;-69
2022/07/22 11:32:10;;;;;;;20.95;14.50;;;23.70;73.90;;;;;;5023679;28;20163;-71
2022/07/22 11:34:42;;;;;;;20.08;13.48;;;23.70;74.00;;;;;;5010802;28;20040;-69
2022/07/22 11:37:08;;;;;;;20.00;14.13;;;23.70;74.00;;;;;;5027822;28;20039;-67
2022/07/22 11:39:35;;;;;;;24.92;15.02;;;23.70;73.90;;;;;;5024945;28;20113;-68
2022/07/22 11:42:01;;;;;;;20.98;14.80;;;23.70;74.10;;;;;;5026678;28;20028;-69
2022/07/22 11:44:29;;;;;;;22.85;14.48;;;23.70;74.20;;;;;;5030721;28;20043;-69
2022/07/22 11:46:58;;;;;;;22.83;14.40;;;23.60;74.10;;;;;;5019153;28;20045;-70
2022/07/22 11:49:26;;;;;;;19.70;13.85;;;23.70;74.30;;;;;;5025602;28;20411;-70
2022/07/22 11:51:52;;;;;;;24.52;14.70;;;23.70;74.60;;;;;;5028279;28;20496;-70
2022/07/22 11:54:18;;;;;;;21.30;15.57;;;23.80;75.00;;;;;;5024873;28;20037;-69
2022/07/22 11:56:44;;;;;;;26.90;15.68;;;23.80;75.00;;;;;;5025435;28;20018;-70
2022/07/22 11:59:15;;;;;;;21.63;14.82;;;23.80;74.90;;;;;;5018839;28;20503;-70
2022/07/22 12:01:48;;;;;;;22.63;14.80;;;23.80;75.00;;;;;;5024824;28;20045;-69
2022/07/22 12:04:23;;;;;;;22.05;14.95;;;23.90;75.10;;;;;;5030216;28;20025;-69
2022/07/22 12:06:58;;;;;;;20.98;15.02;;;23.80;74.80;;;;;;5030716;28;20524;-69
2022/07/22 12:09:31;;;;;;;23.92;15.68;;;23.80;74.80;;;;;;5026307;28;20030;-69
2022/07/22 12:11:57;;;;;;;20.98;15.13;;;23.80;75.00;;;;;;5030161;28;20014;-69
2022/07/22 12:14:29;;;;;;;20.25;15.70;;;23.70;75.20;;;;;;5024091;28;20136;-69
2022/07/22 12:17:08;;;;;;;23.40;16.00;;;23.70;75.20;;;;;;5018814;28;20036;-69
2022/07/22 12:19:36;;;;;;;24.17;15.63;;;23.70;75.20;;;;;;5025979;28;20045;-69
2022/07/22 12:22:10;;;;;;;23.70;15.95;;;23.70;75.50;;;;;;5030049;28;20056;-69
2022/07/22 12:24:35;;;;;;;21.73;15.70;;;23.60;75.40;;;;;;5028860;28;20036;-69
2022/07/22 12:27:07;;;;;;;21.98;15.05;;;23.60;75.40;;;;;;5026631;28;20018;-69
2022/07/22 12:29:38;;;;;;;22.00;15.88;;;23.70;75.40;;;;;;5028599;28;20025;-69
2022/07/22 12:32:04;;;;;;;24.92;15.82;;;23.70;75.50;;;;;;5029615;28;20018;-71
2022/07/22 12:34:35;;;;;;;25.65;16.17;;;23.70;75.80;;;;;;5030472;28;20500;-71
2022/07/22 12:37:22;;;;;;;26.00;17.05;;;23.70;75.90;;;;;;5029927;28;20499;-71
2022/07/22 12:40:06;;;;;;;27.10;16.23;;;23.70;76.00;;;;;;5028830;28;20037;-68